sensor_id;sensor_type;location;lat;lon;timestamp;P1;durP1;ratioP1;P2;durP2;ratioP2
1376;SDS011;682;52.502;13.488;2022-09-09T01:19:48;15.13;;;12.63;;
1376;SDS011;682;52.502;13.488;2022-09-09T01:22:44;14.83;;;12.13;;
1376;SDS011;682;52.502;13.488;2022-09-09T01:28:55;15.00;;;11.97;;
1376;SDS011;682;52.502;13.488;2022-09-09T01:31:26;15.10;;;11.40;;
1376;SDS011;682;52.502;13.488;2022-09-09T01:37:17;16.47;;;13.67;;
1376;SDS011;682;52.502;13.488;2022-09-09T01:39:50;14.13;;;12.17;;
1376;SDS011;682;52.502;13.488;2022-09-09T01:42:17;16.53;;;12.83;;
1376;SDS011;682;52.502;13.488;2022-09-09T01:44:46;16.37;;;12.70;;
1376;SDS011;682;52.502;13.488;2022-09-09T01:47:17;19.00;;;13.30;;
1376;SDS011;682;52.502;13.488;2022-09-09T01:49:45;15.07;;;12.03;;
1376;SDS011;682;52.502;13.488;2022-09-09T01:52:14;15.83;;;12.00;;
1376;SDS011;682;52.502;13.488;2022-09-09T01:54:44;12.50;;;9.80;;
1376;SDS011;682;52.502;13.488;2022-09-09T01:57:23;15.03;;;9.90;;
1376;SDS011;682;52.502;13.488;2022-09-09T02:00:18;13.13;;;10.30;;
1376;SDS011;682;52.502;13.488;2022-09-09T02:02:59;13.83;;;11.47;;
1376;SDS011;682;52.502;13.488;2022-09-09T02:05:48;15.23;;;10.87;;
1376;SDS011;682;52.502;13.488;2022-09-09T02:08:26;14.40;;;11.60;;
1376;SDS011;682;52.502;13.488;2022-09-09T02:11:15;14.53;;;11.07;;
1376;SDS011;682;52.502;13.488;2022-09-09T02:13:57;14.27;;;11.10;;
1376;SDS011;682;52.502;13.488;2022-09-09T02:16:40;13.53;;;10.40;;
1376;SDS011;682;52.502;13.488;2022-09-09T02:19:28;13.67;;;10.73;;
1376;SDS011;682;52.502;13.488;2022-09-09T02:22:16;14.57;;;11.10;;
1376;SDS011;682;52.502;13.488;2022-09-09T02:24:59;13.27;;;11.10;;
1376;SDS011;682;52.502;13.488;2022-09-09T02:31:08;13.07;;;9.97;;
1376;SDS011;682;52.502;13.488;2022-09-09T02:33:56;12.17;;;10.27;;
1376;SDS011;682;52.502;13.488;2022-09-09T02:36:26;13.20;;;10.37;;
1376;SDS011;682;52.502;13.488;2022-09-09T02:39:17;16.13;;;13.20;;
1376;SDS011;682;52.502;13.488;2022-09-09T02:41:46;12.90;;;9.80;;
1376;SDS011;682;52.502;13.488;2022-09-09T02:44:17;11.97;;;10.37;;
1376;SDS011;682;52.502;13.488;2022-09-09T02:47:00;15.90;;;10.90;;
1376;SDS011;682;52.502;13.488;2022-09-09T02:49:59;13.00;;;9.53;;
1376;SDS011;682;52.502;13.488;2022-09-09T02:52:38;14.33;;;10.70;;
1376;SDS011;682;52.502;13.488;2022-09-09T02:55:17;14.27;;;11.83;;
1376;SDS011;682;52.502;13.488;2022-09-09T02:57:56;14.03;;;10.50;;
1376;SDS011;682;52.502;13.488;2022-09-09T03:00:35;15.33;;;11.23;;
1376;SDS011;682;52.502;13.488;2022-09-09T03:03:05;13.50;;;11.10;;
1376;SDS011;682;52.502;13.488;2022-09-09T03:05:39;13.97;;;10.90;;
1376;SDS011;682;52.502;13.488;2022-09-09T03:08:19;14.70;;;10.33;;
1376;SDS011;682;52.502;13.488;2022-09-09T03:11:06;13.37;;;10.47;;
1376;SDS011;682;52.502;13.488;2022-09-09T03:13:37;13.40;;;10.60;;
1376;SDS011;682;52.502;13.488;2022-09-09T03:16:06;13.77;;;10.10;;
1376;SDS011;682;52.502;13.488;2022-09-09T03:18:35;14.47;;;10.63;;
1376;SDS011;682;52.502;13.488;2022-09-09T03:21:09;14.53;;;10.50;;
1376;SDS011;682;52.502;13.488;2022-09-09T03:23:46;14.20;;;10.03;;
1376;SDS011;682;52.502;13.488;2022-09-09T03:26:16;12.13;;;9.80;;
1376;SDS011;682;52.502;13.488;2022-09-09T03:28:47;14.67;;;10.77;;
1376;SDS011;682;52.502;13.488;2022-09-09T03:31:28;13.27;;;10.20;;
1376;SDS011;682;52.502;13.488;2022-09-09T03:34:07;12.73;;;9.70;;
1376;SDS011;682;52.502;13.488;2022-09-09T03:36:47;16.27;;;10.50;;
1376;SDS011;682;52.502;13.488;2022-09-09T03:39:25;16.20;;;9.27;;
1376;SDS011;682;52.502;13.488;2022-09-09T03:41:55;13.43;;;10.20;;
1376;SDS011;682;52.502;13.488;2022-09-09T03:44:59;14.13;;;9.87;;
1376;SDS011;682;52.502;13.488;2022-09-09T03:47:25;14.10;;;10.73;;
1376;SDS011;682;52.502;13.488;2022-09-09T03:49:56;13.37;;;10.07;;
1376;SDS011;682;52.502;13.488;2022-09-09T03:52:55;14.63;;;11.07;;
1376;SDS011;682;52.502;13.488;2022-09-09T03:55:37;12.87;;;9.90;;
1376;SDS011;682;52.502;13.488;2022-09-09T03:58:08;14.80;;;10.33;;
1376;SDS011;682;52.502;13.488;2022-09-09T04:01:26;12.53;;;9.77;;
1376;SDS011;682;52.502;13.488;2022-09-09T04:04:27;13.13;;;10.40;;
1376;SDS011;682;52.502;13.488;2022-09-09T04:06:55;13.87;;;10.80;;
1376;SDS011;682;52.502;13.488;2022-09-09T04:12:59;13.10;;;11.23;;
1376;SDS011;682;52.502;13.488;2022-09-09T04:15:57;16.00;;;12.73;;
1376;SDS011;682;52.502;13.488;2022-09-09T04:21:31;15.50;;;12.33;;
1376;SDS011;682;52.502;13.488;2022-09-09T04:24:16;17.60;;;13.27;;
1376;SDS011;682;52.502;13.488;2022-09-09T04:26:48;17.63;;;12.50;;
1376;SDS011;682;52.502;13.488;2022-09-09T04:29:15;15.70;;;13.30;;
1376;SDS011;682;52.502;13.488;2022-09-09T04:31:50;15.97;;;13.10;;
1376;SDS011;682;52.502;13.488;2022-09-09T04:34:17;14.60;;;12.03;;
1376;SDS011;682;52.502;13.488;2022-09-09T04:36:45;15.33;;;11.87;;
1376;SDS011;682;52.502;13.488;2022-09-09T04:39:12;14.00;;;11.20;;
1376;SDS011;682;52.502;13.488;2022-09-09T04:41:43;14.83;;;11.20;;
1376;SDS011;682;52.502;13.488;2022-09-09T04:44:19;13.07;;;10.97;;
1376;SDS011;682;52.502;13.488;2022-09-09T04:46:48;13.20;;;11.03;;
1376;SDS011;682;52.502;13.488;2022-09-09T04:49:15;16.60;;;11.20;;
1376;SDS011;682;52.502;13.488;2022-09-09T04:51:45;14.10;;;10.37;;
1376;SDS011;682;52.502;13.488;2022-09-09T04:54:19;14.27;;;10.87;;
1376;SDS011;682;52.502;13.488;2022-09-09T04:56:47;14.03;;;10.80;;
1376;SDS011;682;52.502;13.488;2022-09-09T04:59:16;13.50;;;9.93;;
1376;SDS011;682;52.502;13.488;2022-09-09T05:01:47;12.60;;;10.73;;
1376;SDS011;682;52.502;13.488;2022-09-09T05:04:15;13.40;;;11.07;;
1376;SDS011;682;52.502;13.488;2022-09-09T05:06:42;13.17;;;10.30;;
1376;SDS011;682;52.502;13.488;2022-09-09T05:09:10;12.67;;;9.80;;
1376;SDS011;682;52.502;13.488;2022-09-09T05:11:38;13.13;;;10.13;;
1376;SDS011;682;52.502;13.488;2022-09-09T05:14:07;15.93;;;10.70;;
1376;SDS011;682;52.502;13.488;2022-09-09T05:16:36;13.93;;;10.57;;
1376;SDS011;682;52.502;13.488;2022-09-09T05:19:04;11.43;;;9.30;;
1376;SDS011;682;52.502;13.488;2022-09-09T05:21:33;13.67;;;9.93;;
1376;SDS011;682;52.502;13.488;2022-09-09T05:24:00;14.23;;;9.87;;
1376;SDS011;682;52.502;13.488;2022-09-09T05:26:27;11.70;;;10.40;;
1376;SDS011;682;52.502;13.488;2022-09-09T05:28:54;10.77;;;8.70;;
1376;SDS011;682;52.502;13.488;2022-09-09T05:31:22;12.77;;;9.90;;
1376;SDS011;682;52.502;13.488;2022-09-09T05:33:52;12.27;;;8.80;;
1376;SDS011;682;52.502;13.488;2022-09-09T05:36:21;14.87;;;9.97;;
1376;SDS011;682;52.502;13.488;2022-09-09T05:38:48;19.50;;;17.27;;
1376;SDS011;682;52.502;13.488;2022-09-09T05:41:16;14.43;;;9.93;;
1376;SDS011;682;52.502;13.488;2022-09-09T05:43:46;13.60;;;9.37;;
1376;SDS011;682;52.502;13.488;2022-09-09T05:46:14;13.40;;;9.27;;
1376;SDS011;682;52.502;13.488;2022-09-09T05:48:43;14.83;;;9.43;;
1376;SDS011;682;52.502;13.488;2022-09-09T05:51:16;12.40;;;9.03;;
1376;SDS011;682;52.502;13.488;2022-09-09T05:53:48;14.00;;;9.37;;
1376;SDS011;682;52.502;13.488;2022-09-09T05:56:16;11.10;;;7.70;;
1376;SDS011;682;52.502;13.488;2022-09-09T05:58:52;13.53;;;8.43;;
1376;SDS011;682;52.502;13.488;2022-09-09T06:01:23;13.93;;;8.47;;
1376;SDS011;682;52.502;13.488;2022-09-09T06:03:52;11.10;;;8.37;;
1376;SDS011;682;52.502;13.488;2022-09-09T06:06:21;10.93;;;7.70;;
1376;SDS011;682;52.502;13.488;2022-09-09T06:08:57;11.87;;;7.80;;
1376;SDS011;682;52.502;13.488;2022-09-09T06:11:35;14.83;;;7.97;;
1376;SDS011;682;52.502;13.488;2022-09-09T06:14:07;12.50;;;7.63;;
1376;SDS011;682;52.502;13.488;2022-09-09T06:19:10;11.43;;;7.07;;
1376;SDS011;682;52.502;13.488;2022-09-09T06:21:39;13.87;;;8.43;;
1376;SDS011;682;52.502;13.488;2022-09-09T06:24:16;12.53;;;8.20;;
1376;SDS011;682;52.502;13.488;2022-09-09T06:26:46;13.57;;;7.63;;
1376;SDS011;682;52.502;13.488;2022-09-09T06:29:13;12.17;;;6.90;;
1376;SDS011;682;52.502;13.488;2022-09-09T06:32:06;13.47;;;8.00;;
1376;SDS011;682;52.502;13.488;2022-09-09T06:34:33;9.40;;;6.53;;
1376;SDS011;682;52.502;13.488;2022-09-09T06:37:03;10.63;;;6.93;;
1376;SDS011;682;52.502;13.488;2022-09-09T06:39:37;10.50;;;6.63;;
1376;SDS011;682;52.502;13.488;2022-09-09T06:58:09;9.73;;;6.50;;
1376;SDS011;682;52.502;13.488;2022-09-09T07:00:36;12.30;;;5.97;;
1376;SDS011;682;52.502;13.488;2022-09-09T07:03:05;10.03;;;5.33;;
1376;SDS011;682;52.502;13.488;2022-09-09T07:05:32;8.33;;;4.47;;
1376;SDS011;682;52.502;13.488;2022-09-09T07:08:02;11.57;;;5.67;;
1376;SDS011;682;52.502;13.488;2022-09-09T07:10:30;11.27;;;5.20;;
1376;SDS011;682;52.502;13.488;2022-09-09T07:13:08;12.60;;;5.47;;
1376;SDS011;682;52.502;13.488;2022-09-09T07:18:47;11.57;;;5.23;;
1376;SDS011;682;52.502;13.488;2022-09-09T07:21:15;15.60;;;6.37;;
1376;SDS011;682;52.502;13.488;2022-09-09T07:23:47;8.90;;;4.23;;
1376;SDS011;682;52.502;13.488;2022-09-09T07:26:21;10.87;;;4.03;;
1376;SDS011;682;52.502;13.488;2022-09-09T07:28:57;9.23;;;4.60;;
1376;SDS011;682;52.502;13.488;2022-09-09T07:31:28;10.87;;;4.30;;
1376;SDS011;682;52.502;13.488;2022-09-09T07:33:57;9.50;;;4.80;;
1376;SDS011;682;52.502;13.488;2022-09-09T07:36:26;9.23;;;5.23;;
1376;SDS011;682;52.502;13.488;2022-09-09T07:38:55;13.73;;;5.30;;
1376;SDS011;682;52.502;13.488;2022-09-09T07:41:24;9.17;;;4.00;;
1376;SDS011;682;52.502;13.488;2022-09-09T07:43:53;15.00;;;4.53;;
1376;SDS011;682;52.502;13.488;2022-09-09T07:46:21;9.63;;;4.07;;
1376;SDS011;682;52.502;13.488;2022-09-09T07:48:52;9.47;;;4.00;;
1376;SDS011;682;52.502;13.488;2022-09-09T07:51:22;8.53;;;3.80;;
1376;SDS011;682;52.502;13.488;2022-09-09T07:53:51;8.13;;;3.43;;
1376;SDS011;682;52.502;13.488;2022-09-09T07:56:22;7.67;;;3.23;;
1376;SDS011;682;52.502;13.488;2022-09-09T07:58:50;8.10;;;3.30;;
1376;SDS011;682;52.502;13.488;2022-09-09T08:01:18;8.60;;;3.70;;
1376;SDS011;682;52.502;13.488;2022-09-09T08:03:46;7.47;;;3.60;;
1376;SDS011;682;52.502;13.488;2022-09-09T08:06:20;8.47;;;3.17;;
1376;SDS011;682;52.502;13.488;2022-09-09T08:08:49;6.80;;;3.10;;
1376;SDS011;682;52.502;13.488;2022-09-09T08:11:21;9.00;;;3.23;;
1376;SDS011;682;52.502;13.488;2022-09-09T08:13:49;6.27;;;2.70;;
1376;SDS011;682;52.502;13.488;2022-09-09T08:16:18;13.33;;;4.47;;
1376;SDS011;682;52.502;13.488;2022-09-09T08:18:48;13.60;;;5.63;;
1376;SDS011;682;52.502;13.488;2022-09-09T08:21:16;7.73;;;3.00;;
1376;SDS011;682;52.502;13.488;2022-09-09T08:23:50;6.57;;;2.97;;
1376;SDS011;682;52.502;13.488;2022-09-09T08:27:12;6.20;;;2.80;;
1376;SDS011;682;52.502;13.488;2022-09-09T08:33:19;7.07;;;3.10;;
1376;SDS011;682;52.502;13.488;2022-09-09T08:38:50;7.40;;;3.30;;
1376;SDS011;682;52.502;13.488;2022-09-09T08:41:34;7.10;;;2.60;;
1376;SDS011;682;52.502;13.488;2022-09-09T08:44:41;8.43;;;3.43;;
1376;SDS011;682;52.502;13.488;2022-09-09T08:47:30;6.60;;;2.60;;
1376;SDS011;682;52.502;13.488;2022-09-09T08:50:19;7.93;;;2.83;;
1376;SDS011;682;52.502;13.488;2022-09-09T08:52:59;7.73;;;3.27;;
1376;SDS011;682;52.502;13.488;2022-09-09T08:55:37;7.43;;;2.70;;
1376;SDS011;682;52.502;13.488;2022-09-09T08:58:16;9.23;;;3.83;;
1376;SDS011;682;52.502;13.488;2022-09-09T09:00:52;6.77;;;3.10;;
1376;SDS011;682;52.502;13.488;2022-09-09T09:03:35;13.30;;;3.60;;
1376;SDS011;682;52.502;13.488;2022-09-09T09:06:18;9.30;;;3.97;;
1376;SDS011;682;52.502;13.488;2022-09-09T09:08:58;12.17;;;6.40;;
1376;SDS011;682;52.502;13.488;2022-09-09T09:11:36;6.47;;;3.07;;
1376;SDS011;682;52.502;13.488;2022-09-09T09:14:09;7.57;;;3.77;;
1376;SDS011;682;52.502;13.488;2022-09-09T09:16:38;8.57;;;2.60;;
1376;SDS011;682;52.502;13.488;2022-09-09T09:19:17;8.37;;;3.37;;
1376;SDS011;682;52.502;13.488;2022-09-09T09:21:48;10.30;;;2.90;;
1376;SDS011;682;52.502;13.488;2022-09-09T09:24:23;7.43;;;2.43;;
1376;SDS011;682;52.502;13.488;2022-09-09T09:27:12;7.07;;;4.13;;
1376;SDS011;682;52.502;13.488;2022-09-09T09:29:49;9.00;;;2.30;;
1376;SDS011;682;52.502;13.488;2022-09-09T09:32:28;8.97;;;2.80;;
1376;SDS011;682;52.502;13.488;2022-09-09T09:35:00;8.13;;;2.67;;
1376;SDS011;682;52.502;13.488;2022-09-09T09:37:34;6.70;;;2.30;;
1376;SDS011;682;52.502;13.488;2022-09-09T09:40:08;6.23;;;2.30;;
1376;SDS011;682;52.502;13.488;2022-09-09T09:42:46;8.10;;;2.53;;
1376;SDS011;682;52.502;13.488;2022-09-09T09:45:19;9.33;;;3.27;;
1376;SDS011;682;52.502;13.488;2022-09-09T09:48:00;5.97;;;1.80;;
1376;SDS011;682;52.502;13.488;2022-09-09T09:50:29;8.10;;;1.80;;
1376;SDS011;682;52.502;13.488;2022-09-09T09:52:59;6.70;;;2.20;;
1376;SDS011;682;52.502;13.488;2022-09-09T09:55:34;5.50;;;2.70;;
1376;SDS011;682;52.502;13.488;2022-09-09T09:58:31;7.57;;;2.63;;
1376;SDS011;682;52.502;13.488;2022-09-09T10:01:01;5.27;;;2.20;;
1376;SDS011;682;52.502;13.488;2022-09-09T10:03:35;7.13;;;2.00;;
1376;SDS011;682;52.502;13.488;2022-09-09T10:06:06;7.13;;;2.07;;
1376;SDS011;682;52.502;13.488;2022-09-09T10:08:43;5.80;;;2.47;;
1376;SDS011;682;52.502;13.488;2022-09-09T10:11:20;6.60;;;1.97;;
1376;SDS011;682;52.502;13.488;2022-09-09T10:14:03;6.13;;;1.80;;
1376;SDS011;682;52.502;13.488;2022-09-09T10:16:47;7.23;;;1.97;;
1376;SDS011;682;52.502;13.488;2022-09-09T10:19:31;6.27;;;2.07;;
1376;SDS011;682;52.502;13.488;2022-09-09T10:22:05;6.93;;;2.07;;
1376;SDS011;682;52.502;13.488;2022-09-09T10:25:01;9.10;;;2.03;;
1376;SDS011;682;52.502;13.488;2022-09-09T10:27:49;5.87;;;1.90;;
1376;SDS011;682;52.502;13.488;2022-09-09T10:30:30;6.57;;;2.40;;
1376;SDS011;682;52.502;13.488;2022-09-09T10:33:16;7.40;;;2.47;;
1376;SDS011;682;52.502;13.488;2022-09-09T10:35:54;6.63;;;2.00;;
1376;SDS011;682;52.502;13.488;2022-09-09T10:38:32;5.30;;;2.10;;
1376;SDS011;682;52.502;13.488;2022-09-09T10:41:15;5.43;;;1.60;;
1376;SDS011;682;52.502;13.488;2022-09-09T10:46:57;6.27;;;2.13;;
1376;SDS011;682;52.502;13.488;2022-09-09T10:49:53;8.03;;;2.50;;
1376;SDS011;682;52.502;13.488;2022-09-09T10:52:31;5.50;;;1.80;;
1376;SDS011;682;52.502;13.488;2022-09-09T10:55:08;7.07;;;4.10;;
1376;SDS011;682;52.502;13.488;2022-09-09T10:57:45;8.20;;;2.53;;
1376;SDS011;682;52.502;13.488;2022-09-09T11:00:17;7.43;;;3.30;;
1376;SDS011;682;52.502;13.488;2022-09-09T11:02:51;5.70;;;1.90;;
1376;SDS011;682;52.502;13.488;2022-09-09T11:05:28;6.17;;;2.03;;
1376;SDS011;682;52.502;13.488;2022-09-09T11:08:03;4.87;;;1.60;;
1376;SDS011;682;52.502;13.488;2022-09-09T11:10:34;4.90;;;1.70;;
1376;SDS011;682;52.502;13.488;2022-09-09T11:13:14;6.53;;;2.20;;
1376;SDS011;682;52.502;13.488;2022-09-09T11:15:52;6.90;;;2.47;;
1376;SDS011;682;52.502;13.488;2022-09-09T11:18:32;7.57;;;1.80;;
1376;SDS011;682;52.502;13.488;2022-09-09T11:21:25;6.90;;;1.93;;
1376;SDS011;682;52.502;13.488;2022-09-09T11:23:59;7.53;;;3.03;;
1376;SDS011;682;52.502;13.488;2022-09-09T11:26:37;4.40;;;1.40;;
1376;SDS011;682;52.502;13.488;2022-09-09T11:29:17;6.30;;;1.27;;
1376;SDS011;682;52.502;13.488;2022-09-09T11:32:08;5.13;;;1.73;;
1376;SDS011;682;52.502;13.488;2022-09-09T11:34:54;6.10;;;1.30;;
1376;SDS011;682;52.502;13.488;2022-09-09T11:37:40;5.90;;;1.37;;
1376;SDS011;682;52.502;13.488;2022-09-09T11:40:21;5.87;;;1.50;;
1376;SDS011;682;52.502;13.488;2022-09-09T11:43:02;5.10;;;2.30;;
1376;SDS011;682;52.502;13.488;2022-09-09T11:45:31;5.50;;;1.40;;
1376;SDS011;682;52.502;13.488;2022-09-09T11:48:21;5.93;;;2.20;;
1376;SDS011;682;52.502;13.488;2022-09-09T11:51:02;4.70;;;1.43;;
1376;SDS011;682;52.502;13.488;2022-09-09T11:53:49;4.27;;;1.50;;
1376;SDS011;682;52.502;13.488;2022-09-09T11:56:26;6.30;;;2.20;;
1376;SDS011;682;52.502;13.488;2022-09-09T11:58:59;6.13;;;1.60;;
1376;SDS011;682;52.502;13.488;2022-09-09T12:04:55;5.47;;;1.87;;
1376;SDS011;682;52.502;13.488;2022-09-09T12:07:35;5.70;;;1.33;;
1376;SDS011;682;52.502;13.488;2022-09-09T12:10:19;6.17;;;2.03;;
1376;SDS011;682;52.502;13.488;2022-09-09T12:13:07;5.70;;;1.80;;
1376;SDS011;682;52.502;13.488;2022-09-09T12:15:50;6.50;;;2.00;;
1376;SDS011;682;52.502;13.488;2022-09-09T12:18:37;7.37;;;1.60;;
1376;SDS011;682;52.502;13.488;2022-09-09T12:21:17;4.87;;;1.50;;
1376;SDS011;682;52.502;13.488;2022-09-09T12:24:10;5.60;;;0.90;;
1376;SDS011;682;52.502;13.488;2022-09-09T12:27:00;5.13;;;1.50;;
1376;SDS011;682;52.502;13.488;2022-09-09T12:29:37;5.10;;;1.47;;
1376;SDS011;682;52.502;13.488;2022-09-09T12:32:36;5.40;;;1.67;;
1376;SDS011;682;52.502;13.488;2022-09-09T12:35:09;5.50;;;1.40;;
1376;SDS011;682;52.502;13.488;2022-09-09T12:38:09;5.07;;;1.60;;
1376;SDS011;682;52.502;13.488;2022-09-09T12:40:53;4.93;;;1.10;;
1376;SDS011;682;52.502;13.488;2022-09-09T12:43:26;6.70;;;1.80;;
1376;SDS011;682;52.502;13.488;2022-09-09T12:45:57;5.13;;;1.37;;
1376;SDS011;682;52.502;13.488;2022-09-09T12:48:53;6.60;;;2.40;;
1376;SDS011;682;52.502;13.488;2022-09-09T12:51:29;6.27;;;1.87;;
1376;SDS011;682;52.502;13.488;2022-09-09T12:53:58;4.40;;;0.93;;
1376;SDS011;682;52.502;13.488;2022-09-09T12:56:34;4.60;;;1.00;;
1376;SDS011;682;52.502;13.488;2022-09-09T12:59:17;8.10;;;1.80;;
1376;SDS011;682;52.502;13.488;2022-09-09T13:02:10;8.57;;;3.27;;
1376;SDS011;682;52.502;13.488;2022-09-09T13:04:45;6.60;;;2.60;;
1376;SDS011;682;52.502;13.488;2022-09-09T13:07:13;8.00;;;4.80;;
1376;SDS011;682;52.502;13.488;2022-09-09T13:09:41;7.37;;;4.47;;
1376;SDS011;682;52.502;13.488;2022-09-09T13:12:34;7.70;;;2.50;;
1376;SDS011;682;52.502;13.488;2022-09-09T13:15:09;11.37;;;8.37;;
1376;SDS011;682;52.502;13.488;2022-09-09T13:17:51;7.40;;;2.50;;
1376;SDS011;682;52.502;13.488;2022-09-09T13:20:20;5.63;;;2.10;;
1376;SDS011;682;52.502;13.488;2022-09-09T13:22:50;7.13;;;2.27;;
1376;SDS011;682;52.502;13.488;2022-09-09T13:25:19;6.10;;;3.03;;
1376;SDS011;682;52.502;13.488;2022-09-09T13:27:54;7.50;;;3.57;;
1376;SDS011;682;52.502;13.488;2022-09-09T13:30:23;8.00;;;3.57;;
1376;SDS011;682;52.502;13.488;2022-09-09T13:33:01;6.13;;;2.13;;
1376;SDS011;682;52.502;13.488;2022-09-09T13:35:46;6.10;;;1.97;;
1376;SDS011;682;52.502;13.488;2022-09-09T13:38:26;6.13;;;1.37;;
1376;SDS011;682;52.502;13.488;2022-09-09T13:41:03;6.70;;;1.93;;
1376;SDS011;682;52.502;13.488;2022-09-09T13:43:36;5.73;;;1.70;;
1376;SDS011;682;52.502;13.488;2022-09-09T13:46:22;5.70;;;1.50;;
1376;SDS011;682;52.502;13.488;2022-09-09T13:48:58;5.73;;;1.53;;
1376;SDS011;682;52.502;13.488;2022-09-09T13:51:34;5.73;;;1.90;;
1376;SDS011;682;52.502;13.488;2022-09-09T13:54:02;7.87;;;2.10;;
1376;SDS011;682;52.502;13.488;2022-09-09T14:17:44;9.70;;;2.53;;
1376;SDS011;682;52.502;13.488;2022-09-09T14:20:16;5.90;;;2.13;;
1376;SDS011;682;52.502;13.488;2022-09-09T14:22:46;7.33;;;1.90;;
1376;SDS011;682;52.502;13.488;2022-09-09T14:25:27;6.27;;;1.70;;
1376;SDS011;682;52.502;13.488;2022-09-09T14:28:04;10.13;;;2.30;;
1376;SDS011;682;52.502;13.488;2022-09-09T14:30:33;8.60;;;2.10;;
1376;SDS011;682;52.502;13.488;2022-09-09T14:33:15;7.70;;;2.10;;
1376;SDS011;682;52.502;13.488;2022-09-09T14:35:43;7.30;;;2.13;;
1376;SDS011;682;52.502;13.488;2022-09-09T14:38:11;5.43;;;1.50;;
1376;SDS011;682;52.502;13.488;2022-09-09T14:40:45;7.93;;;2.73;;
1376;SDS011;682;52.502;13.488;2022-09-09T14:43:15;5.63;;;1.50;;
1376;SDS011;682;52.502;13.488;2022-09-09T14:45:47;9.07;;;1.83;;
1376;SDS011;682;52.502;13.488;2022-09-09T14:48:16;7.00;;;1.97;;
1376;SDS011;682;52.502;13.488;2022-09-09T14:50:51;5.90;;;1.50;;
1376;SDS011;682;52.502;13.488;2022-09-09T14:53:25;6.17;;;1.43;;
1376;SDS011;682;52.502;13.488;2022-09-09T14:55:52;6.30;;;1.43;;
1376;SDS011;682;52.502;13.488;2022-09-09T14:58:33;4.87;;;1.20;;
1376;SDS011;682;52.502;13.488;2022-09-09T15:01:04;5.43;;;1.33;;
1376;SDS011;682;52.502;13.488;2022-09-09T15:03:35;7.30;;;2.20;;
1376;SDS011;682;52.502;13.488;2022-09-09T15:06:17;6.37;;;1.87;;
1376;SDS011;682;52.502;13.488;2022-09-09T15:08:53;5.97;;;1.50;;
1376;SDS011;682;52.502;13.488;2022-09-09T15:11:26;6.10;;;1.40;;
1376;SDS011;682;52.502;13.488;2022-09-09T15:14:03;6.20;;;2.17;;
1376;SDS011;682;52.502;13.488;2022-09-09T15:16:34;5.43;;;1.83;;
1376;SDS011;682;52.502;13.488;2022-09-09T15:19:03;6.23;;;1.60;;
1376;SDS011;682;52.502;13.488;2022-09-09T15:24:06;5.67;;;1.80;;
1376;SDS011;682;52.502;13.488;2022-09-09T15:26:36;7.93;;;1.53;;
1376;SDS011;682;52.502;13.488;2022-09-09T15:29:11;5.80;;;1.30;;
1376;SDS011;682;52.502;13.488;2022-09-09T15:31:40;6.03;;;2.23;;
1376;SDS011;682;52.502;13.488;2022-09-09T15:34:14;9.67;;;4.50;;
1376;SDS011;682;52.502;13.488;2022-09-09T15:36:42;6.40;;;2.00;;
1376;SDS011;682;52.502;13.488;2022-09-09T15:39:13;7.90;;;1.90;;
1376;SDS011;682;52.502;13.488;2022-09-09T15:41:44;6.50;;;1.67;;
1376;SDS011;682;52.502;13.488;2022-09-09T15:44:24;10.97;;;3.30;;
1376;SDS011;682;52.502;13.488;2022-09-09T15:46:54;7.33;;;1.63;;
1376;SDS011;682;52.502;13.488;2022-09-09T15:49:25;6.60;;;1.77;;
1376;SDS011;682;52.502;13.488;2022-09-09T15:51:55;4.83;;;1.20;;
1376;SDS011;682;52.502;13.488;2022-09-09T15:54:24;6.53;;;2.57;;
1376;SDS011;682;52.502;13.488;2022-09-09T15:56:57;7.10;;;1.67;;
1376;SDS011;682;52.502;13.488;2022-09-09T15:59:37;6.70;;;1.60;;
1376;SDS011;682;52.502;13.488;2022-09-09T16:02:15;7.97;;;2.17;;
1376;SDS011;682;52.502;13.488;2022-09-09T16:04:46;9.70;;;3.23;;
1376;SDS011;682;52.502;13.488;2022-09-09T16:07:23;6.80;;;1.87;;
1376;SDS011;682;52.502;13.488;2022-09-09T16:09:55;9.67;;;2.90;;
1376;SDS011;682;52.502;13.488;2022-09-09T16:12:24;8.30;;;2.43;;
1376;SDS011;682;52.502;13.488;2022-09-09T16:14:55;7.60;;;3.00;;
1376;SDS011;682;52.502;13.488;2022-09-09T16:17:23;14.50;;;4.77;;
1376;SDS011;682;52.502;13.488;2022-09-09T16:20:05;7.10;;;1.87;;
1376;SDS011;682;52.502;13.488;2022-09-09T16:22:33;16.73;;;8.80;;
1376;SDS011;682;52.502;13.488;2022-09-09T16:25:01;6.73;;;1.60;;
1376;SDS011;682;52.502;13.488;2022-09-09T16:27:28;5.10;;;1.20;;
1376;SDS011;682;52.502;13.488;2022-09-09T16:30:04;10.30;;;6.50;;
1376;SDS011;682;52.502;13.488;2022-09-09T16:32:33;5.87;;;1.80;;
1376;SDS011;682;52.502;13.488;2022-09-09T16:35:06;6.60;;;2.70;;
1376;SDS011;682;52.502;13.488;2022-09-09T16:37:44;5.80;;;2.60;;
1376;SDS011;682;52.502;13.488;2022-09-09T16:40:18;6.70;;;2.47;;
1376;SDS011;682;52.502;13.488;2022-09-09T16:43:07;13.30;;;4.47;;
1376;SDS011;682;52.502;13.488;2022-09-09T16:45:49;6.73;;;2.73;;
1376;SDS011;682;52.502;13.488;2022-09-09T16:48:16;6.63;;;2.50;;
1376;SDS011;682;52.502;13.488;2022-09-09T16:50:42;9.13;;;2.23;;
1376;SDS011;682;52.502;13.488;2022-09-09T16:53:15;6.80;;;2.00;;
1376;SDS011;682;52.502;13.488;2022-09-09T16:55:41;7.20;;;2.50;;
1376;SDS011;682;52.502;13.488;2022-09-09T16:58:10;6.37;;;1.93;;
1376;SDS011;682;52.502;13.488;2022-09-09T17:00:37;10.10;;;2.80;;
1376;SDS011;682;52.502;13.488;2022-09-09T17:03:05;9.60;;;3.70;;
1376;SDS011;682;52.502;13.488;2022-09-09T17:05:32;8.23;;;2.70;;
1376;SDS011;682;52.502;13.488;2022-09-09T17:08:09;8.87;;;2.80;;
1376;SDS011;682;52.502;13.488;2022-09-09T17:10:40;7.93;;;3.80;;
1376;SDS011;682;52.502;13.488;2022-09-09T17:13:08;7.50;;;3.60;;
1376;SDS011;682;52.502;13.488;2022-09-09T17:15:38;8.10;;;3.20;;
1376;SDS011;682;52.502;13.488;2022-09-09T17:18:09;9.40;;;3.80;;
1376;SDS011;682;52.502;13.488;2022-09-09T17:20:36;8.97;;;2.93;;
1376;SDS011;682;52.502;13.488;2022-09-09T17:23:04;8.13;;;2.50;;
1376;SDS011;682;52.502;13.488;2022-09-09T17:25:35;6.50;;;2.43;;
1376;SDS011;682;52.502;13.488;2022-09-09T17:28:03;8.00;;;1.90;;
1376;SDS011;682;52.502;13.488;2022-09-09T17:30:33;8.27;;;3.57;;
1376;SDS011;682;52.502;13.488;2022-09-09T17:33:03;6.37;;;2.37;;
1376;SDS011;682;52.502;13.488;2022-09-09T17:35:33;10.47;;;4.67;;
1376;SDS011;682;52.502;13.488;2022-09-09T17:38:06;13.13;;;6.90;;
1376;SDS011;682;52.502;13.488;2022-09-09T17:40:36;8.23;;;2.53;;
1376;SDS011;682;52.502;13.488;2022-09-09T17:43:02;6.30;;;1.87;;
1376;SDS011;682;52.502;13.488;2022-09-09T17:45:30;8.43;;;2.40;;
1376;SDS011;682;52.502;13.488;2022-09-09T17:48:01;7.40;;;3.80;;
1376;SDS011;682;52.502;13.488;2022-09-09T17:50:30;8.63;;;2.77;;
1376;SDS011;682;52.502;13.488;2022-09-09T17:53:06;6.30;;;2.30;;
1376;SDS011;682;52.502;13.488;2022-09-09T17:55:35;6.23;;;1.70;;
1376;SDS011;682;52.502;13.488;2022-09-09T17:58:02;5.17;;;1.20;;
1376;SDS011;682;52.502;13.488;2022-09-09T18:00:30;7.23;;;1.70;;
1376;SDS011;682;52.502;13.488;2022-09-09T18:02:58;6.03;;;1.50;;
1376;SDS011;682;52.502;13.488;2022-09-09T18:05:25;6.00;;;1.80;;
1376;SDS011;682;52.502;13.488;2022-09-09T18:07:55;7.80;;;1.80;;
1376;SDS011;682;52.502;13.488;2022-09-09T18:10:23;10.50;;;2.73;;
1376;SDS011;682;52.502;13.488;2022-09-09T18:12:50;6.07;;;1.70;;
1376;SDS011;682;52.502;13.488;2022-09-09T18:15:18;7.87;;;2.77;;
1376;SDS011;682;52.502;13.488;2022-09-09T18:17:46;6.03;;;1.90;;
1376;SDS011;682;52.502;13.488;2022-09-09T18:20:13;6.80;;;2.03;;
1376;SDS011;682;52.502;13.488;2022-09-09T18:22:47;8.40;;;2.17;;
1376;SDS011;682;52.502;13.488;2022-09-09T18:25:15;5.80;;;1.80;;
1376;SDS011;682;52.502;13.488;2022-09-09T18:27:53;9.50;;;2.40;;
1376;SDS011;682;52.502;13.488;2022-09-09T18:30:23;7.00;;;2.47;;